createdAt,value
2023-03-16T00:01:07.176Z,1.60
2023-03-16T00:03:38.017Z,1.23
2023-03-16T00:06:07.267Z,1.30
2023-03-16T00:08:37.161Z,1.50
2023-03-16T00:11:07.461Z,1.40
2023-03-16T00:13:36.068Z,1.40
2023-03-16T00:16:08.013Z,1.30
2023-03-16T00:18:39.097Z,1.30
2023-03-16T00:21:08.559Z,1.27
2023-03-16T00:23:37.881Z,1.10
2023-03-16T00:26:10.422Z,1.23
2023-03-16T00:28:39.068Z,1.10
2023-03-16T00:31:12.877Z,1.00
2023-03-16T00:33:43.868Z,1.33
2023-03-16T00:36:13.407Z,1.20
2023-03-16T00:38:45.210Z,1.13
2023-03-16T00:41:16.256Z,1.00
2023-03-16T00:43:45.663Z,1.27
2023-03-16T00:46:18.935Z,1.10
2023-03-16T00:48:48.957Z,0.93
2023-03-16T00:51:19.881Z,1.17
2023-03-16T00:53:48.933Z,1.47
2023-03-16T00:56:18.432Z,1.10
2023-03-16T00:58:47.247Z,1.10
2023-03-16T01:01:20.175Z,1.13
2023-03-16T01:03:49.742Z,1.30
2023-03-16T01:06:20.745Z,1.30
2023-03-16T01:08:50.555Z,1.20
2023-03-16T01:11:21.936Z,1.27
2023-03-16T01:13:54.283Z,1.30
2023-03-16T01:16:24.288Z,1.20
2023-03-16T01:18:53.500Z,1.17
2023-03-16T01:21:22.894Z,1.10
2023-03-16T01:23:53.807Z,1.10
2023-03-16T01:26:23.137Z,1.20
2023-03-16T01:28:52.403Z,1.23
2023-03-16T01:31:21.124Z,0.80
2023-03-16T01:33:51.307Z,1.20
2023-03-16T01:36:23.839Z,1.20
2023-03-16T01:39:00.095Z,1.20
2023-03-16T01:41:32.739Z,1.13
2023-03-16T01:44:01.545Z,1.00
2023-03-16T01:46:31.586Z,1.30
2023-03-16T01:49:12.417Z,1.10
2023-03-16T01:51:47.527Z,0.93
2023-03-16T01:54:24.980Z,1.20
2023-03-16T01:57:01.305Z,1.00
2023-03-16T01:59:34.716Z,0.70
2023-03-16T02:02:04.757Z,0.90
2023-03-16T02:04:47.758Z,1.00
2023-03-16T02:07:22.708Z,0.90
2023-03-16T02:09:56.365Z,0.80
2023-03-16T02:12:25.645Z,0.90
2023-03-16T02:14:56.949Z,0.77
2023-03-16T02:17:29.717Z,1.00
2023-03-16T02:20:16.938Z,0.90
2023-03-16T02:22:49.340Z,1.10
2023-03-16T02:25:19.946Z,1.00
2023-03-16T02:28:02.316Z,0.83
2023-03-16T02:30:34.207Z,0.90
2023-03-16T02:33:06.166Z,0.80
2023-03-16T02:35:35.105Z,0.73
2023-03-16T02:38:05.048Z,0.90
2023-03-16T02:40:39.362Z,0.90
2023-03-16T02:43:16.732Z,0.83
2023-03-16T02:45:54.579Z,0.83
2023-03-16T02:48:32.792Z,1.00
2023-03-16T02:51:01.466Z,0.80
2023-03-16T02:53:30.085Z,1.00
2023-03-16T02:56:02.840Z,1.00
2023-03-16T02:58:33.763Z,0.90
2023-03-16T03:01:07.548Z,1.13
2023-03-16T03:03:37.271Z,0.80
2023-03-16T03:06:07.675Z,0.70
2023-03-16T03:08:38.884Z,1.10
2023-03-16T03:11:07.802Z,0.70
2023-03-16T03:13:38.284Z,0.83
2023-03-16T03:16:12.998Z,0.67
2023-03-16T03:18:42.550Z,0.60
2023-03-16T03:21:11.020Z,0.83
2023-03-16T03:23:39.407Z,1.00
2023-03-16T03:26:09.368Z,0.60
2023-03-16T03:28:37.804Z,0.87
2023-03-16T03:31:07.119Z,0.87
2023-03-16T03:33:36.913Z,0.90
2023-03-16T03:36:06.834Z,0.90
2023-03-16T03:38:38.492Z,1.00
2023-03-16T03:41:09.146Z,0.70
2023-03-16T03:43:40.005Z,0.60
2023-03-16T03:46:14.316Z,0.90
2023-03-16T03:48:44.815Z,1.10
2023-03-16T03:51:13.321Z,0.87
2023-03-16T03:54:00.687Z,0.83
2023-03-16T03:56:45.158Z,0.90
2023-03-16T03:59:17.340Z,0.97
2023-03-16T04:02:01.100Z,0.93
2023-03-16T04:04:42.298Z,0.90
2023-03-16T04:07:14.188Z,0.90
2023-03-16T04:09:44.364Z,0.80
2023-03-16T04:12:22.820Z,0.87
2023-03-16T04:14:52.013Z,1.00
2023-03-16T04:17:21.754Z,0.60
2023-03-16T04:19:53.077Z,0.80
2023-03-16T04:22:23.190Z,1.10
2023-03-16T04:24:53.379Z,1.00
2023-03-16T04:27:23.225Z,0.83
2023-03-16T04:29:56.036Z,0.70
2023-03-16T04:32:26.364Z,0.77
2023-03-16T04:34:56.921Z,0.80
2023-03-16T04:37:35.863Z,0.70
2023-03-16T04:40:15.666Z,0.90
2023-03-16T04:42:49.151Z,0.70
2023-03-16T04:45:21.067Z,0.87
2023-03-16T04:47:52.919Z,0.80
2023-03-16T04:50:23.928Z,0.87
2023-03-16T04:52:56.193Z,0.80
2023-03-16T04:55:25.226Z,1.10
2023-03-16T04:57:54.356Z,0.80
2023-03-16T05:00:24.886Z,0.80
2023-03-16T05:03:02.789Z,0.90
2023-03-16T05:05:33.015Z,0.90
2023-03-16T05:08:02.341Z,0.70
2023-03-16T05:10:35.551Z,1.03
2023-03-16T05:13:04.635Z,1.33
2023-03-16T05:15:34.408Z,1.13
2023-03-16T05:18:25.824Z,1.10
2023-03-16T05:20:57.936Z,0.90
2023-03-16T05:23:33.194Z,1.20
2023-03-16T05:26:05.348Z,1.13
2023-03-16T05:28:36.975Z,1.30
2023-03-16T05:31:08.785Z,1.47
2023-03-16T05:33:42.709Z,1.60
2023-03-16T05:36:17.554Z,1.37
2023-03-16T05:38:48.774Z,1.30
2023-03-16T05:41:31.371Z,1.70
2023-03-16T05:44:22.713Z,1.37
2023-03-16T05:47:14.349Z,1.60
2023-03-16T05:49:47.216Z,1.83
2023-03-16T05:52:26.411Z,1.60
2023-03-16T05:54:56.980Z,1.50
2023-03-16T05:57:25.667Z,1.50
2023-03-16T05:59:54.584Z,1.80
2023-03-16T06:02:24.573Z,1.50
2023-03-16T06:04:53.366Z,1.60
2023-03-16T06:07:22.129Z,1.67
2023-03-16T06:09:54.104Z,1.67
2023-03-16T06:12:22.551Z,1.70
2023-03-16T06:14:51.639Z,1.70
2023-03-16T06:17:20.088Z,1.70
2023-03-16T06:19:49.348Z,1.50
2023-03-16T06:22:20.528Z,1.60
2023-03-16T06:24:49.022Z,1.70
2023-03-16T06:27:21.394Z,1.37
2023-03-16T06:30:07.054Z,1.50
2023-03-16T06:32:35.758Z,1.70
2023-03-16T06:35:05.148Z,1.70
2023-03-16T06:37:34.630Z,1.60
2023-03-16T06:40:11.337Z,1.70
2023-03-16T06:42:41.480Z,1.40
2023-03-16T06:45:16.548Z,1.50
2023-03-16T06:47:45.632Z,1.20
2023-03-16T06:50:14.547Z,1.40
2023-03-16T06:52:42.934Z,1.23
2023-03-16T06:55:12.890Z,1.50
2023-03-16T06:57:46.308Z,1.33
2023-03-16T07:00:16.990Z,1.50
2023-03-16T07:02:45.356Z,1.93
2023-03-16T07:05:15.800Z,1.50
2023-03-16T07:07:45.586Z,1.60
2023-03-16T07:10:17.456Z,1.40
2023-03-16T07:12:48.121Z,1.40
2023-03-16T07:15:16.542Z,1.40
2023-03-16T07:17:45.432Z,1.53
2023-03-16T07:20:14.864Z,1.40
2023-03-16T07:22:44.816Z,1.10
2023-03-16T07:25:15.035Z,1.30
2023-03-16T07:27:50.765Z,1.47
2023-03-16T07:30:25.627Z,1.17
2023-03-16T07:32:54.869Z,1.30
2023-03-16T07:35:26.665Z,1.10
2023-03-16T07:37:56.067Z,1.40
2023-03-16T07:40:26.070Z,1.13
2023-03-16T07:43:00.874Z,1.30
2023-03-16T07:45:36.921Z,1.40
2023-03-16T07:48:06.599Z,1.20
2023-03-16T07:50:46.332Z,1.10
2023-03-16T07:53:15.595Z,1.13
2023-03-16T07:55:46.910Z,1.20
2023-03-16T07:58:17.216Z,1.13
2023-03-16T08:00:45.753Z,1.30
2023-03-16T08:03:14.227Z,1.40
2023-03-16T08:05:43.178Z,1.37
2023-03-16T08:08:16.510Z,1.27
2023-03-16T08:10:45.398Z,1.37
2023-03-16T08:13:18.894Z,1.20
2023-03-16T08:15:48.973Z,1.40
2023-03-16T08:18:26.669Z,1.40
2023-03-16T08:20:55.791Z,1.07
2023-03-16T08:23:25.085Z,1.47
2023-03-16T08:25:55.130Z,1.20
2023-03-16T08:28:26.540Z,1.37
2023-03-16T08:30:58.632Z,1.40
2023-03-16T08:33:48.557Z,1.43
2023-03-16T08:36:21.024Z,1.50
2023-03-16T08:39:05.919Z,1.20
2023-03-16T08:41:40.939Z,1.37
2023-03-16T08:44:20.226Z,1.40
2023-03-16T08:46:49.140Z,1.50
2023-03-16T08:49:17.530Z,1.40
2023-03-16T08:51:46.577Z,1.53
2023-03-16T08:54:15.978Z,1.60
2023-03-16T08:56:44.669Z,1.40
2023-03-16T08:59:27.092Z,1.13
2023-03-16T09:02:00.467Z,1.50
2023-03-16T09:04:29.964Z,1.30
2023-03-16T09:07:08.519Z,1.30
2023-03-16T09:09:37.646Z,1.27
2023-03-16T09:12:08.639Z,1.13
2023-03-16T09:14:38.555Z,1.17
2023-03-16T09:17:08.992Z,1.30
2023-03-16T09:19:50.517Z,1.27
2023-03-16T09:22:20.087Z,1.07
2023-03-16T09:24:49.639Z,1.10
2023-03-16T09:27:18.708Z,1.27
2023-03-16T09:29:47.823Z,1.30
2023-03-16T09:32:17.847Z,1.43
2023-03-16T09:34:46.466Z,1.10
2023-03-16T09:37:16.360Z,1.00
2023-03-16T09:39:45.947Z,1.07
2023-03-16T09:42:21.759Z,1.20
2023-03-16T09:45:05.836Z,0.90
2023-03-16T09:47:37.201Z,1.20
2023-03-16T09:50:09.949Z,1.27
2023-03-16T09:52:56.439Z,1.37
2023-03-16T09:55:32.093Z,1.40
2023-03-16T09:58:02.023Z,1.33
2023-03-16T10:00:35.543Z,1.30
2023-03-16T10:03:18.919Z,1.40
2023-03-16T10:05:50.888Z,1.50
2023-03-16T10:08:25.697Z,1.50
2023-03-16T10:11:19.052Z,1.40
2023-03-16T10:13:52.778Z,1.30
2023-03-16T10:16:28.062Z,1.33
2023-03-16T10:19:04.844Z,1.40
2023-03-16T10:21:41.070Z,1.60
2023-03-16T10:24:20.000Z,1.30
2023-03-16T10:26:56.438Z,1.20
2023-03-16T10:29:25.097Z,1.40
2023-03-16T10:31:56.042Z,1.30
2023-03-16T10:34:26.255Z,1.13
2023-03-16T10:36:56.850Z,1.27
2023-03-16T10:39:25.283Z,1.30
2023-03-16T10:41:58.432Z,1.10
2023-03-16T10:44:29.888Z,1.20
2023-03-16T10:47:04.910Z,1.10
2023-03-16T10:49:41.893Z,1.17
2023-03-16T10:52:17.254Z,1.30
2023-03-16T10:54:51.538Z,1.00
2023-03-16T10:57:26.599Z,1.10
2023-03-16T10:59:57.662Z,1.20
2023-03-16T11:02:34.428Z,0.90
2023-03-16T11:05:17.428Z,1.03
2023-03-16T11:07:51.249Z,1.00
2023-03-16T11:10:36.233Z,1.10
2023-03-16T11:13:15.944Z,1.10
2023-03-16T11:15:50.564Z,0.97
2023-03-16T11:18:31.768Z,1.13
2023-03-16T11:21:08.454Z,1.13
2023-03-16T11:23:42.208Z,1.07
2023-03-16T11:26:24.153Z,0.80
2023-03-16T11:29:02.178Z,1.03
2023-03-16T11:31:42.809Z,0.87
2023-03-16T11:34:19.413Z,0.80
2023-03-16T11:36:56.419Z,0.70
2023-03-16T11:39:37.668Z,0.73
2023-03-16T11:42:29.109Z,0.80
2023-03-16T11:45:05.669Z,1.07
2023-03-16T11:48:06.385Z,0.80
2023-03-16T11:50:49.725Z,0.70
2023-03-16T11:53:34.247Z,0.80
2023-03-16T11:56:17.452Z,0.67
2023-03-16T11:59:02.292Z,0.77
2023-03-16T12:01:59.821Z,0.80
2023-03-16T12:04:57.540Z,0.70
2023-03-16T12:07:44.821Z,0.60
2023-03-16T12:10:27.155Z,0.60
2023-03-16T12:13:11.006Z,0.70
2023-03-16T12:15:44.977Z,0.60
2023-03-16T12:18:19.184Z,0.70
2023-03-16T12:20:58.271Z,0.70
2023-03-16T12:23:32.598Z,0.80
2023-03-16T12:26:04.595Z,0.90
2023-03-16T12:28:34.363Z,0.60
2023-03-16T12:31:14.237Z,0.80
2023-03-16T12:34:08.305Z,0.80
2023-03-16T12:37:03.422Z,0.60
2023-03-16T12:40:06.327Z,0.60
2023-03-16T12:43:01.489Z,0.60
2023-03-16T12:45:41.201Z,0.60
2023-03-16T12:48:27.349Z,0.40
2023-03-16T12:50:59.138Z,0.67
2023-03-16T12:53:44.042Z,0.87
2023-03-16T12:56:16.373Z,0.50
2023-03-16T12:58:49.288Z,0.50
2023-03-16T13:01:21.065Z,0.50
2023-03-16T13:03:51.863Z,0.57
2023-03-16T13:06:25.116Z,0.87
2023-03-16T13:08:59.758Z,0.40
2023-03-16T13:11:29.903Z,0.47
2023-03-16T13:14:12.895Z,0.60
2023-03-16T13:16:42.046Z,0.60
2023-03-16T13:19:37.892Z,0.80
2023-03-16T13:22:28.611Z,0.60
2023-03-16T13:25:14.275Z,0.70
2023-03-16T13:27:45.841Z,0.57
2023-03-16T13:30:23.724Z,0.67
2023-03-16T13:32:56.328Z,0.50
2023-03-16T13:35:31.781Z,0.57
2023-03-16T13:38:06.749Z,0.50
2023-03-16T13:40:38.051Z,0.60
2023-03-16T13:43:06.756Z,0.53
2023-03-16T13:45:39.978Z,0.60
2023-03-16T13:48:12.407Z,0.50
2023-03-16T13:50:42.463Z,0.53
2023-03-16T13:53:19.082Z,0.60
2023-03-16T13:55:49.949Z,0.70
2023-03-16T13:58:25.939Z,0.80
2023-03-16T14:01:00.795Z,0.73
2023-03-16T14:03:36.080Z,0.60
2023-03-16T14:06:06.374Z,0.50
2023-03-16T14:08:35.647Z,0.90
2023-03-16T14:11:04.622Z,0.77
2023-03-16T14:13:38.360Z,0.70
2023-03-16T14:16:16.675Z,0.77
2023-03-16T14:18:48.205Z,0.80
2023-03-16T14:21:20.949Z,0.90
2023-03-16T14:23:55.284Z,0.70
2023-03-16T14:26:24.132Z,0.70
2023-03-16T14:28:59.766Z,0.67
2023-03-16T14:31:38.632Z,0.80
2023-03-16T14:34:22.577Z,0.70
2023-03-16T14:36:51.215Z,0.60
2023-03-16T14:39:22.853Z,0.53
2023-03-16T14:41:54.586Z,0.63
2023-03-16T14:44:26.589Z,0.57
2023-03-16T14:46:57.861Z,0.90
2023-03-16T14:49:30.976Z,0.70
2023-03-16T14:52:02.585Z,0.87
2023-03-16T14:54:31.877Z,0.67
2023-03-16T14:57:03.840Z,1.10
2023-03-16T14:59:32.630Z,0.90
2023-03-16T15:02:04.495Z,0.70
2023-03-16T15:04:35.346Z,0.60
2023-03-16T15:07:20.278Z,0.50
2023-03-16T15:09:49.614Z,0.60
2023-03-16T15:12:20.868Z,0.50
2023-03-16T15:15:07.487Z,0.60
2023-03-16T15:17:37.931Z,0.50
2023-03-16T15:20:08.462Z,0.50
2023-03-16T15:22:39.981Z,0.50
2023-03-16T15:25:26.898Z,0.53
2023-03-16T15:27:55.833Z,0.50
2023-03-16T15:30:28.753Z,0.60
2023-03-16T15:32:58.874Z,0.57
2023-03-16T15:35:28.045Z,0.60
2023-03-16T15:37:56.868Z,0.67
2023-03-16T15:40:28.210Z,0.73
2023-03-16T15:42:56.749Z,0.70
2023-03-16T15:45:25.688Z,0.50
2023-03-16T15:47:55.251Z,0.80
2023-03-16T15:50:25.918Z,0.63
2023-03-16T15:52:59.738Z,0.60
2023-03-16T15:55:36.590Z,0.70
2023-03-16T15:58:06.218Z,0.63
2023-03-16T16:00:37.466Z,0.60
2023-03-16T16:03:08.092Z,0.77
2023-03-16T16:05:37.927Z,0.83
2023-03-16T16:08:07.290Z,0.60
2023-03-16T16:10:36.375Z,0.60
2023-03-16T16:13:05.581Z,0.50
2023-03-16T16:15:37.612Z,0.60
2023-03-16T16:18:28.269Z,0.50
2023-03-16T16:21:01.364Z,0.60
2023-03-16T16:23:31.207Z,0.87
2023-03-16T16:26:04.495Z,0.60
2023-03-16T16:28:34.226Z,0.80
2023-03-16T16:31:03.028Z,0.80
2023-03-16T16:33:33.551Z,0.80
2023-03-16T16:36:08.775Z,0.90
2023-03-16T16:38:37.283Z,0.70
2023-03-16T16:41:10.215Z,0.50
2023-03-16T16:43:42.156Z,0.60
2023-03-16T16:46:16.490Z,0.70
2023-03-16T16:48:47.541Z,0.53
2023-03-16T16:51:21.681Z,0.60
2023-03-16T16:53:51.904Z,1.30
2023-03-16T16:56:27.801Z,0.90
2023-03-16T16:58:58.162Z,0.80
2023-03-16T17:01:29.928Z,0.83
2023-03-16T17:03:58.531Z,0.73
2023-03-16T17:06:29.118Z,0.67
2023-03-16T17:08:57.734Z,0.67
2023-03-16T17:11:30.049Z,0.70
2023-03-16T17:14:02.192Z,0.60
2023-03-16T17:16:32.875Z,0.70
2023-03-16T17:19:01.459Z,0.60
2023-03-16T17:21:32.818Z,0.60
2023-03-16T17:24:03.073Z,0.70
2023-03-16T17:26:34.571Z,0.70
2023-03-16T17:29:06.956Z,0.53
2023-03-16T17:31:38.332Z,0.50
2023-03-16T17:34:18.064Z,0.70
2023-03-16T17:36:49.284Z,0.60
2023-03-16T17:39:20.927Z,0.80
2023-03-16T17:41:50.786Z,0.80
2023-03-16T17:44:21.511Z,0.60
2023-03-16T17:46:51.332Z,0.90
2023-03-16T17:49:20.674Z,0.60
2023-03-16T17:51:50.745Z,0.80
2023-03-16T17:54:19.283Z,0.63
2023-03-16T17:56:51.680Z,0.80
2023-03-16T17:59:23.353Z,0.60
2023-03-16T18:01:52.261Z,0.50
2023-03-16T18:04:23.401Z,0.77
2023-03-16T18:06:54.330Z,0.70
2023-03-16T18:09:23.244Z,0.60
2023-03-16T18:11:52.509Z,0.77
2023-03-16T18:14:26.676Z,0.50
2023-03-16T18:16:55.715Z,0.87
2023-03-16T18:19:26.816Z,0.70
2023-03-16T18:21:57.357Z,0.70
2023-03-16T18:24:28.193Z,0.80
2023-03-16T18:26:56.678Z,0.80
2023-03-16T18:29:25.119Z,0.70
2023-03-16T18:31:58.211Z,0.50
2023-03-16T18:34:32.458Z,0.80
2023-03-16T18:37:06.239Z,0.77
2023-03-16T18:39:35.075Z,0.70
2023-03-16T18:42:04.371Z,0.60
2023-03-16T18:44:33.730Z,0.70
2023-03-16T18:47:04.996Z,0.80
2023-03-16T18:49:36.521Z,0.70
2023-03-16T18:52:19.272Z,0.67
2023-03-16T18:54:48.363Z,0.70
2023-03-16T18:57:20.105Z,0.90
2023-03-16T18:59:49.338Z,0.90
2023-03-16T19:02:30.653Z,0.93
2023-03-16T19:05:01.926Z,0.70
2023-03-16T19:07:35.547Z,0.73
2023-03-16T19:10:13.580Z,0.47
2023-03-16T19:12:44.771Z,0.80
2023-03-16T19:15:23.413Z,0.83
2023-03-16T19:17:53.222Z,0.73
2023-03-16T19:20:25.970Z,1.00
2023-03-16T19:23:02.379Z,0.90
2023-03-16T19:25:36.114Z,0.70
2023-03-16T19:28:05.747Z,0.90
2023-03-16T19:30:35.812Z,0.87
2023-03-16T19:33:04.486Z,0.73
2023-03-16T19:35:50.317Z,0.90
2023-03-16T19:38:21.608Z,0.80
2023-03-16T19:40:54.608Z,0.77
2023-03-16T19:43:26.741Z,0.90
2023-03-16T19:45:56.504Z,1.17
2023-03-16T19:48:32.816Z,0.87
2023-03-16T19:51:03.105Z,0.63
2023-03-16T19:53:33.508Z,0.87
2023-03-16T19:56:05.580Z,1.00
2023-03-16T19:58:38.484Z,1.07
2023-03-16T20:01:08.459Z,0.97
2023-03-16T20:03:38.808Z,0.90
2023-03-16T20:06:10.059Z,0.90
2023-03-16T20:08:40.078Z,0.90
2023-03-16T20:11:15.845Z,1.10
2023-03-16T20:13:44.771Z,1.10
2023-03-16T20:16:21.189Z,1.23
2023-03-16T20:18:54.204Z,1.10
2023-03-16T20:21:28.405Z,1.20
2023-03-16T20:23:58.793Z,1.10
2023-03-16T20:26:31.723Z,0.93
2023-03-16T20:29:02.784Z,0.90
2023-03-16T20:31:34.741Z,1.20
2023-03-16T20:34:03.378Z,1.10
2023-03-16T20:36:32.068Z,0.97
2023-03-16T20:39:02.218Z,0.80
2023-03-16T20:41:32.943Z,0.80
2023-03-16T20:44:03.158Z,1.20
2023-03-16T20:46:34.393Z,0.77
2023-03-16T20:49:03.517Z,1.13
2023-03-16T20:51:32.002Z,0.97
2023-03-16T20:54:01.938Z,1.27
2023-03-16T20:56:31.831Z,0.90
2023-03-16T20:59:00.369Z,1.30
2023-03-16T21:01:28.843Z,1.30
2023-03-16T21:03:58.993Z,1.30
2023-03-16T21:06:32.057Z,1.00
2023-03-16T21:09:03.542Z,1.10
2023-03-16T21:11:37.424Z,1.20
2023-03-16T21:14:08.458Z,1.10
2023-03-16T21:16:38.671Z,1.10
2023-03-16T21:19:14.198Z,1.00
2023-03-16T21:21:43.001Z,1.27
2023-03-16T21:24:12.803Z,1.03
2023-03-16T21:26:42.505Z,0.90
2023-03-16T21:29:20.888Z,0.90
2023-03-16T21:31:49.624Z,0.97
2023-03-16T21:34:25.537Z,0.90
2023-03-16T21:36:54.226Z,1.10
2023-03-16T21:39:25.341Z,1.00
2023-03-16T21:41:54.509Z,0.87
2023-03-16T21:44:22.946Z,0.90
2023-03-16T21:46:51.661Z,1.00
2023-03-16T21:49:20.129Z,1.10
2023-03-16T21:51:50.381Z,1.10
2023-03-16T21:54:20.406Z,0.97
2023-03-16T21:56:50.355Z,0.87
2023-03-16T21:59:19.106Z,0.90
2023-03-16T22:02:00.700Z,0.80
2023-03-16T22:04:30.313Z,0.80
2023-03-16T22:06:58.743Z,0.80
2023-03-16T22:09:30.316Z,0.87
2023-03-16T22:12:03.505Z,0.90
2023-03-16T22:14:32.354Z,0.83
2023-03-16T22:17:00.808Z,0.80
2023-03-16T22:19:29.696Z,0.93
2023-03-16T22:21:58.490Z,0.80
2023-03-16T22:24:31.397Z,0.90
2023-03-16T22:27:01.640Z,0.83
2023-03-16T22:29:36.579Z,0.80
2023-03-16T22:32:12.334Z,0.87
2023-03-16T22:34:45.045Z,0.80
2023-03-16T22:37:18.341Z,0.80
2023-03-16T22:39:47.362Z,1.20
2023-03-16T22:42:28.630Z,0.77
2023-03-16T22:44:57.453Z,0.90
2023-03-16T22:47:29.302Z,0.83
2023-03-16T22:49:57.776Z,0.80
2023-03-16T22:52:31.545Z,0.80
2023-03-16T22:55:01.988Z,1.20
2023-03-16T22:57:33.143Z,0.90
2023-03-16T23:00:11.145Z,0.80
2023-03-16T23:02:39.743Z,1.03
2023-03-16T23:05:21.763Z,0.87
2023-03-16T23:07:50.632Z,0.80
2023-03-16T23:10:21.667Z,0.83
2023-03-16T23:12:53.456Z,0.90
2023-03-16T23:15:26.683Z,0.80
2023-03-16T23:17:55.389Z,0.87
2023-03-16T23:20:29.083Z,1.07
2023-03-16T23:23:00.609Z,1.00
2023-03-16T23:25:28.987Z,0.60
2023-03-16T23:28:02.656Z,0.80
2023-03-16T23:30:32.769Z,0.83
2023-03-16T23:33:01.614Z,0.90
2023-03-16T23:35:32.422Z,0.70
2023-03-16T23:38:01.015Z,0.73
2023-03-16T23:40:30.484Z,0.70
2023-03-16T23:43:02.411Z,0.60
2023-03-16T23:45:35.698Z,0.60
2023-03-16T23:48:12.379Z,0.80
2023-03-16T23:50:42.880Z,0.70
2023-03-16T23:53:17.477Z,0.70
2023-03-16T23:55:47.432Z,0.70
2023-03-16T23:58:17.700Z,0.70
